sensor_id;sensor_type;location;lat;lon;timestamp;P1;durP1;ratioP1;P2;durP2;ratioP2
60372;SDS011;46216;52.220;5.134;2023-10-09T00:01:42;48.40;;;27.73;;
60372;SDS011;46216;52.220;5.134;2023-10-09T00:04:09;46.40;;;27.52;;
60372;SDS011;46216;52.220;5.134;2023-10-09T00:06:36;51.00;;;27.45;;
60372;SDS011;46216;52.220;5.134;2023-10-09T00:09:05;45.97;;;27.10;;
60372;SDS011;46216;52.220;5.134;2023-10-09T00:11:54;47.13;;;27.08;;
60372;SDS011;46216;52.220;5.134;2023-10-09T00:14:31;41.17;;;25.90;;
60372;SDS011;46216;52.220;5.134;2023-10-09T00:17:03;38.13;;;24.98;;
60372;SDS011;46216;52.220;5.134;2023-10-09T00:19:47;44.55;;;25.67;;
60372;SDS011;46216;52.220;5.134;2023-10-09T00:22:16;41.80;;;26.25;;
60372;SDS011;46216;52.220;5.134;2023-10-09T00:24:54;42.20;;;27.25;;
60372;SDS011;46216;52.220;5.134;2023-10-09T00:27:39;41.50;;;25.45;;
60372;SDS011;46216;52.220;5.134;2023-10-09T00:30:09;42.03;;;25.63;;
60372;SDS011;46216;52.220;5.134;2023-10-09T00:32:36;40.22;;;24.83;;
60372;SDS011;46216;52.220;5.134;2023-10-09T00:35:02;40.17;;;26.40;;
60372;SDS011;46216;52.220;5.134;2023-10-09T00:37:48;38.55;;;25.02;;
60372;SDS011;46216;52.220;5.134;2023-10-09T00:40:16;39.00;;;25.63;;
60372;SDS011;46216;52.220;5.134;2023-10-09T00:42:52;33.03;;;24.02;;
60372;SDS011;46216;52.220;5.134;2023-10-09T00:45:20;34.70;;;23.95;;
60372;SDS011;46216;52.220;5.134;2023-10-09T00:47:52;35.25;;;24.08;;
60372;SDS011;46216;52.220;5.134;2023-10-09T00:50:23;36.88;;;23.80;;
60372;SDS011;46216;52.220;5.134;2023-10-09T00:52:53;33.30;;;23.05;;
60372;SDS011;46216;52.220;5.134;2023-10-09T00:55:30;32.40;;;22.55;;
60372;SDS011;46216;52.220;5.134;2023-10-09T00:58:09;33.85;;;22.52;;
60372;SDS011;46216;52.220;5.134;2023-10-09T01:00:40;32.67;;;22.90;;
60372;SDS011;46216;52.220;5.134;2023-10-09T01:03:09;34.35;;;23.38;;
60372;SDS011;46216;52.220;5.134;2023-10-09T01:05:59;28.75;;;21.33;;
60372;SDS011;46216;52.220;5.134;2023-10-09T01:08:35;30.13;;;21.95;;
60372;SDS011;46216;52.220;5.134;2023-10-09T01:11:07;29.95;;;21.88;;
60372;SDS011;46216;52.220;5.134;2023-10-09T01:13:39;28.92;;;21.83;;
60372;SDS011;46216;52.220;5.134;2023-10-09T01:16:15;30.35;;;21.90;;
60372;SDS011;46216;52.220;5.134;2023-10-09T01:18:55;27.98;;;20.58;;
60372;SDS011;46216;52.220;5.134;2023-10-09T01:21:23;28.58;;;20.48;;
60372;SDS011;46216;52.220;5.134;2023-10-09T01:23:51;27.00;;;20.42;;
60372;SDS011;46216;52.220;5.134;2023-10-09T01:26:38;26.27;;;20.38;;
60372;SDS011;46216;52.220;5.134;2023-10-09T01:29:08;29.05;;;20.40;;
60372;SDS011;46216;52.220;5.134;2023-10-09T01:31:41;27.17;;;19.88;;
60372;SDS011;46216;52.220;5.134;2023-10-09T01:34:30;30.88;;;20.02;;
60372;SDS011;46216;52.220;5.134;2023-10-09T01:37:08;27.55;;;19.58;;
60372;SDS011;46216;52.220;5.134;2023-10-09T01:39:42;26.75;;;19.38;;
60372;SDS011;46216;52.220;5.134;2023-10-09T01:42:08;30.88;;;19.73;;
60372;SDS011;46216;52.220;5.134;2023-10-09T01:44:35;25.77;;;19.50;;
60372;SDS011;46216;52.220;5.134;2023-10-09T01:47:04;26.70;;;19.80;;
60372;SDS011;46216;52.220;5.134;2023-10-09T01:49:35;24.60;;;19.33;;
60372;SDS011;46216;52.220;5.134;2023-10-09T01:52:06;30.85;;;19.27;;
60372;SDS011;46216;52.220;5.134;2023-10-09T01:54:41;24.52;;;18.80;;
60372;SDS011;46216;52.220;5.134;2023-10-09T01:57:12;28.15;;;18.45;;
60372;SDS011;46216;52.220;5.134;2023-10-09T01:59:47;24.95;;;18.88;;
60372;SDS011;46216;52.220;5.134;2023-10-09T02:02:14;27.17;;;19.65;;
60372;SDS011;46216;52.220;5.134;2023-10-09T02:05:00;27.40;;;19.85;;
60372;SDS011;46216;52.220;5.134;2023-10-09T02:07:49;26.75;;;20.13;;
60372;SDS011;46216;52.220;5.134;2023-10-09T02:10:17;28.02;;;19.63;;
60372;SDS011;46216;52.220;5.134;2023-10-09T02:13:05;26.40;;;19.35;;
60372;SDS011;46216;52.220;5.134;2023-10-09T02:15:32;25.48;;;18.73;;
60372;SDS011;46216;52.220;5.134;2023-10-09T02:18:07;23.42;;;18.85;;
60372;SDS011;46216;52.220;5.134;2023-10-09T02:20:52;26.98;;;19.92;;
60372;SDS011;46216;52.220;5.134;2023-10-09T02:23:37;24.92;;;18.48;;
60372;SDS011;46216;52.220;5.134;2023-10-09T02:26:03;27.73;;;19.13;;
60372;SDS011;46216;52.220;5.134;2023-10-09T02:28:31;23.33;;;18.92;;
60372;SDS011;46216;52.220;5.134;2023-10-09T02:30:58;26.00;;;18.98;;
60372;SDS011;46216;52.220;5.134;2023-10-09T02:33:26;27.33;;;19.60;;
60372;SDS011;46216;52.220;5.134;2023-10-09T02:35:55;24.40;;;18.65;;
60372;SDS011;46216;52.220;5.134;2023-10-09T02:38:24;24.92;;;19.05;;
60372;SDS011;46216;52.220;5.134;2023-10-09T02:40:51;25.45;;;19.20;;
60372;SDS011;46216;52.220;5.134;2023-10-09T02:43:29;27.45;;;18.42;;
60372;SDS011;46216;52.220;5.134;2023-10-09T02:46:19;24.75;;;18.25;;
60372;SDS011;46216;52.220;5.134;2023-10-09T02:48:54;24.23;;;17.58;;
60372;SDS011;46216;52.220;5.134;2023-10-09T02:51:24;21.95;;;17.83;;
60372;SDS011;46216;52.220;5.134;2023-10-09T02:53:51;23.30;;;17.02;;
60372;SDS011;46216;52.220;5.134;2023-10-09T02:56:17;25.02;;;16.67;;
60372;SDS011;46216;52.220;5.134;2023-10-09T02:58:49;23.10;;;16.50;;
60372;SDS011;46216;52.220;5.134;2023-10-09T03:01:18;21.38;;;15.48;;
60372;SDS011;46216;52.220;5.134;2023-10-09T03:03:44;20.42;;;14.55;;
60372;SDS011;46216;52.220;5.134;2023-10-09T03:06:10;18.75;;;14.43;;
60372;SDS011;46216;52.220;5.134;2023-10-09T03:08:38;19.08;;;14.02;;
60372;SDS011;46216;52.220;5.134;2023-10-09T03:11:07;20.13;;;14.20;;
60372;SDS011;46216;52.220;5.134;2023-10-09T03:13:41;22.75;;;14.20;;
60372;SDS011;46216;52.220;5.134;2023-10-09T03:16:08;19.75;;;13.60;;
60372;SDS011;46216;52.220;5.134;2023-10-09T03:18:50;21.35;;;14.05;;
60372;SDS011;46216;52.220;5.134;2023-10-09T03:21:21;18.52;;;14.07;;
60372;SDS011;46216;52.220;5.134;2023-10-09T03:23:46;18.27;;;13.73;;
60372;SDS011;46216;52.220;5.134;2023-10-09T03:26:18;18.90;;;13.88;;
60372;SDS011;46216;52.220;5.134;2023-10-09T03:28:47;23.05;;;14.20;;
60372;SDS011;46216;52.220;5.134;2023-10-09T03:31:13;18.85;;;13.57;;
60372;SDS011;46216;52.220;5.134;2023-10-09T03:33:39;18.27;;;13.95;;
60372;SDS011;46216;52.220;5.134;2023-10-09T03:36:05;22.33;;;14.15;;
60372;SDS011;46216;52.220;5.134;2023-10-09T03:38:34;21.50;;;13.48;;
60372;SDS011;46216;52.220;5.134;2023-10-09T03:41:01;19.70;;;13.50;;
60372;SDS011;46216;52.220;5.134;2023-10-09T03:43:32;19.30;;;12.98;;
60372;SDS011;46216;52.220;5.134;2023-10-09T03:45:59;17.60;;;12.77;;
60372;SDS011;46216;52.220;5.134;2023-10-09T03:48:28;20.35;;;12.63;;
60372;SDS011;46216;52.220;5.134;2023-10-09T03:50:57;19.25;;;12.82;;
60372;SDS011;46216;52.220;5.134;2023-10-09T03:53:37;17.77;;;12.55;;
60372;SDS011;46216;52.220;5.134;2023-10-09T03:56:06;18.70;;;13.10;;
60372;SDS011;46216;52.220;5.134;2023-10-09T03:58:45;20.10;;;13.32;;
60372;SDS011;46216;52.220;5.134;2023-10-09T04:01:12;18.15;;;12.75;;
60372;SDS011;46216;52.220;5.134;2023-10-09T04:03:44;17.17;;;12.93;;
60372;SDS011;46216;52.220;5.134;2023-10-09T04:06:09;20.70;;;14.05;;
60372;SDS011;46216;52.220;5.134;2023-10-09T04:08:36;17.63;;;12.95;;
60372;SDS011;46216;52.220;5.134;2023-10-09T04:11:05;21.15;;;13.30;;
60372;SDS011;46216;52.220;5.134;2023-10-09T04:13:42;17.92;;;13.52;;
60372;SDS011;46216;52.220;5.134;2023-10-09T04:16:10;26.13;;;13.27;;
60372;SDS011;46216;52.220;5.134;2023-10-09T04:18:53;20.10;;;13.40;;
60372;SDS011;46216;52.220;5.134;2023-10-09T04:21:21;18.38;;;12.60;;
60372;SDS011;46216;52.220;5.134;2023-10-09T04:24:08;17.92;;;13.15;;
60372;SDS011;46216;52.220;5.134;2023-10-09T04:26:39;18.25;;;13.00;;
60372;SDS011;46216;52.220;5.134;2023-10-09T04:29:15;17.70;;;12.85;;
60372;SDS011;46216;52.220;5.134;2023-10-09T04:32:02;19.33;;;12.88;;
60372;SDS011;46216;52.220;5.134;2023-10-09T04:34:32;18.75;;;12.50;;
60372;SDS011;46216;52.220;5.134;2023-10-09T04:37:13;18.02;;;12.23;;
60372;SDS011;46216;52.220;5.134;2023-10-09T04:39:40;18.65;;;12.38;;
60372;SDS011;46216;52.220;5.134;2023-10-09T04:42:12;16.45;;;12.10;;
60372;SDS011;46216;52.220;5.134;2023-10-09T04:44:50;17.27;;;12.23;;
60372;SDS011;46216;52.220;5.134;2023-10-09T04:50:07;16.05;;;11.93;;
60372;SDS011;46216;52.220;5.134;2023-10-09T04:52:39;15.43;;;11.07;;
60372;SDS011;46216;52.220;5.134;2023-10-09T04:55:05;20.30;;;11.18;;
60372;SDS011;46216;52.220;5.134;2023-10-09T04:57:35;17.50;;;12.18;;
60372;SDS011;46216;52.220;5.134;2023-10-09T05:00:24;15.93;;;11.80;;
60372;SDS011;46216;52.220;5.134;2023-10-09T05:02:50;15.82;;;10.68;;
60372;SDS011;46216;52.220;5.134;2023-10-09T05:05:20;21.73;;;11.73;;
60372;SDS011;46216;52.220;5.134;2023-10-09T05:08:04;15.18;;;10.32;;
60372;SDS011;46216;52.220;5.134;2023-10-09T05:10:48;16.83;;;10.68;;
60372;SDS011;46216;52.220;5.134;2023-10-09T05:13:24;18.58;;;11.52;;
60372;SDS011;46216;52.220;5.134;2023-10-09T05:18:52;16.40;;;10.50;;
60372;SDS011;46216;52.220;5.134;2023-10-09T05:21:37;14.18;;;9.73;;
60372;SDS011;46216;52.220;5.134;2023-10-09T05:24:08;17.73;;;10.30;;
60372;SDS011;46216;52.220;5.134;2023-10-09T05:26:37;15.35;;;9.10;;
60372;SDS011;46216;52.220;5.134;2023-10-09T05:29:10;16.55;;;9.93;;
60372;SDS011;46216;52.220;5.134;2023-10-09T05:32:05;13.10;;;9.73;;
60372;SDS011;46216;52.220;5.134;2023-10-09T05:34:37;12.73;;;9.18;;
60372;SDS011;46216;52.220;5.134;2023-10-09T05:37:22;16.40;;;9.85;;
60372;SDS011;46216;52.220;5.134;2023-10-09T05:39:53;13.55;;;8.98;;
60372;SDS011;46216;52.220;5.134;2023-10-09T05:42:25;16.45;;;9.18;;
60372;SDS011;46216;52.220;5.134;2023-10-09T05:45:10;16.25;;;10.27;;
60372;SDS011;46216;52.220;5.134;2023-10-09T05:50:18;12.65;;;8.50;;
60372;SDS011;46216;52.220;5.134;2023-10-09T05:52:44;12.07;;;8.13;;
60372;SDS011;46216;52.220;5.134;2023-10-09T05:55:21;13.73;;;8.65;;
60372;SDS011;46216;52.220;5.134;2023-10-09T05:58:06;13.60;;;8.90;;
60372;SDS011;46216;52.220;5.134;2023-10-09T06:01:10;16.55;;;8.90;;
60372;SDS011;46216;52.220;5.134;2023-10-09T06:03:54;12.85;;;8.90;;
60372;SDS011;46216;52.220;5.134;2023-10-09T06:06:22;13.32;;;9.27;;
60372;SDS011;46216;52.220;5.134;2023-10-09T06:09:07;15.25;;;9.80;;
60372;SDS011;46216;52.220;5.134;2023-10-09T06:11:39;14.32;;;9.23;;
60372;SDS011;46216;52.220;5.134;2023-10-09T06:14:18;18.75;;;9.05;;
60372;SDS011;46216;52.220;5.134;2023-10-09T06:16:56;13.95;;;8.95;;
60372;SDS011;46216;52.220;5.134;2023-10-09T06:19:23;14.98;;;9.02;;
60372;SDS011;46216;52.220;5.134;2023-10-09T06:21:55;14.50;;;8.45;;
60372;SDS011;46216;52.220;5.134;2023-10-09T06:24:26;13.40;;;8.95;;
60372;SDS011;46216;52.220;5.134;2023-10-09T06:26:58;16.83;;;9.07;;
60372;SDS011;46216;52.220;5.134;2023-10-09T06:29:28;13.15;;;8.93;;
60372;SDS011;46216;52.220;5.134;2023-10-09T06:32:04;16.15;;;9.45;;
60372;SDS011;46216;52.220;5.134;2023-10-09T06:34:45;15.63;;;8.98;;
60372;SDS011;46216;52.220;5.134;2023-10-09T06:37:16;18.67;;;9.35;;
60372;SDS011;46216;52.220;5.134;2023-10-09T06:40:00;16.05;;;9.50;;
60372;SDS011;46216;52.220;5.134;2023-10-09T06:42:55;14.15;;;9.00;;
60372;SDS011;46216;52.220;5.134;2023-10-09T06:45:20;16.13;;;9.07;;
60372;SDS011;46216;52.220;5.134;2023-10-09T06:47:46;13.75;;;8.82;;
60372;SDS011;46216;52.220;5.134;2023-10-09T06:50:34;14.70;;;8.60;;
60372;SDS011;46216;52.220;5.134;2023-10-09T06:53:18;13.85;;;8.55;;
60372;SDS011;46216;52.220;5.134;2023-10-09T06:55:51;16.80;;;9.10;;
60372;SDS011;46216;52.220;5.134;2023-10-09T07:00:52;14.63;;;9.05;;
60372;SDS011;46216;52.220;5.134;2023-10-09T07:03:37;12.68;;;8.90;;
60372;SDS011;46216;52.220;5.134;2023-10-09T07:06:17;12.13;;;8.35;;
60372;SDS011;46216;52.220;5.134;2023-10-09T07:08:52;15.10;;;9.23;;
60372;SDS011;46216;52.220;5.134;2023-10-09T07:14:13;14.05;;;9.02;;
60372;SDS011;46216;52.220;5.134;2023-10-09T07:17:01;18.05;;;8.90;;
60372;SDS011;46216;52.220;5.134;2023-10-09T07:19:54;15.55;;;9.05;;
60372;SDS011;46216;52.220;5.134;2023-10-09T07:22:19;12.43;;;8.60;;
60372;SDS011;46216;52.220;5.134;2023-10-09T07:24:45;17.75;;;9.35;;
60372;SDS011;46216;52.220;5.134;2023-10-09T07:27:18;13.27;;;9.35;;
60372;SDS011;46216;52.220;5.134;2023-10-09T07:30:04;17.60;;;9.77;;
60372;SDS011;46216;52.220;5.134;2023-10-09T07:32:51;14.35;;;8.57;;
60372;SDS011;46216;52.220;5.134;2023-10-09T07:35:19;13.60;;;9.23;;
60372;SDS011;46216;52.220;5.134;2023-10-09T07:38:04;14.02;;;9.20;;
60372;SDS011;46216;52.220;5.134;2023-10-09T07:40:34;16.92;;;9.82;;
60372;SDS011;46216;52.220;5.134;2023-10-09T07:43:17;15.85;;;9.43;;
60372;SDS011;46216;52.220;5.134;2023-10-09T07:45:43;16.00;;;9.40;;
60372;SDS011;46216;52.220;5.134;2023-10-09T07:48:14;15.32;;;9.70;;
60372;SDS011;46216;52.220;5.134;2023-10-09T07:50:40;17.30;;;9.20;;
60372;SDS011;46216;52.220;5.134;2023-10-09T07:53:15;17.60;;;9.40;;
60372;SDS011;46216;52.220;5.134;2023-10-09T07:55:45;18.17;;;9.40;;
60372;SDS011;46216;52.220;5.134;2023-10-09T07:58:23;16.50;;;9.95;;
60372;SDS011;46216;52.220;5.134;2023-10-09T08:00:56;13.57;;;9.27;;
60372;SDS011;46216;52.220;5.134;2023-10-09T08:03:31;15.35;;;9.57;;
60372;SDS011;46216;52.220;5.134;2023-10-09T08:05:59;18.08;;;9.07;;
60372;SDS011;46216;52.220;5.134;2023-10-09T08:08:44;13.10;;;8.90;;
60372;SDS011;46216;52.220;5.134;2023-10-09T08:11:29;14.35;;;8.88;;
60372;SDS011;46216;52.220;5.134;2023-10-09T08:14:10;14.32;;;9.45;;
60372;SDS011;46216;52.220;5.134;2023-10-09T08:16:55;15.02;;;8.80;;
60372;SDS011;46216;52.220;5.134;2023-10-09T08:19:53;16.33;;;8.73;;
60372;SDS011;46216;52.220;5.134;2023-10-09T08:22:28;15.32;;;9.00;;
60372;SDS011;46216;52.220;5.134;2023-10-09T08:24:54;17.20;;;8.55;;
60372;SDS011;46216;52.220;5.134;2023-10-09T08:27:26;16.23;;;8.75;;
60372;SDS011;46216;52.220;5.134;2023-10-09T08:29:58;14.93;;;9.15;;
60372;SDS011;46216;52.220;5.134;2023-10-09T08:32:46;14.02;;;9.00;;
60372;SDS011;46216;52.220;5.134;2023-10-09T08:35:28;15.63;;;8.60;;
60372;SDS011;46216;52.220;5.134;2023-10-09T08:38:11;16.02;;;8.95;;
60372;SDS011;46216;52.220;5.134;2023-10-09T08:40:37;16.05;;;8.00;;
60372;SDS011;46216;52.220;5.134;2023-10-09T08:43:18;15.27;;;8.52;;
60372;SDS011;46216;52.220;5.134;2023-10-09T08:48:17;19.60;;;8.57;;
60372;SDS011;46216;52.220;5.134;2023-10-09T08:50:46;13.82;;;8.30;;
60372;SDS011;46216;52.220;5.134;2023-10-09T08:53:20;16.55;;;8.50;;
60372;SDS011;46216;52.220;5.134;2023-10-09T08:55:47;14.15;;;8.40;;
60372;SDS011;46216;52.220;5.134;2023-10-09T08:58:15;12.27;;;8.30;;
60372;SDS011;46216;52.220;5.134;2023-10-09T09:00:46;12.70;;;7.60;;
60372;SDS011;46216;52.220;5.134;2023-10-09T09:03:15;13.48;;;7.88;;
60372;SDS011;46216;52.220;5.134;2023-10-09T09:06:02;15.48;;;7.88;;
60372;SDS011;46216;52.220;5.134;2023-10-09T09:08:31;14.98;;;7.95;;
60372;SDS011;46216;52.220;5.134;2023-10-09T09:11:04;18.67;;;8.52;;
60372;SDS011;46216;52.220;5.134;2023-10-09T09:14:04;13.43;;;7.50;;
60372;SDS011;46216;52.220;5.134;2023-10-09T09:16:31;14.90;;;7.93;;
60372;SDS011;46216;52.220;5.134;2023-10-09T09:19:02;11.65;;;7.40;;
60372;SDS011;46216;52.220;5.134;2023-10-09T09:21:35;13.73;;;7.90;;
60372;SDS011;46216;52.220;5.134;2023-10-09T09:24:12;14.32;;;7.53;;
60372;SDS011;46216;52.220;5.134;2023-10-09T09:26:51;13.93;;;7.40;;
60372;SDS011;46216;52.220;5.134;2023-10-09T09:29:24;10.88;;;6.95;;
60372;SDS011;46216;52.220;5.134;2023-10-09T09:32:03;15.10;;;7.68;;
60372;SDS011;46216;52.220;5.134;2023-10-09T09:34:50;15.07;;;6.97;;
60372;SDS011;46216;52.220;5.134;2023-10-09T09:37:20;11.25;;;7.10;;
60372;SDS011;46216;52.220;5.134;2023-10-09T09:39:49;13.65;;;7.53;;
60372;SDS011;46216;52.220;5.134;2023-10-09T09:42:16;11.98;;;6.60;;
60372;SDS011;46216;52.220;5.134;2023-10-09T09:44:43;12.02;;;6.90;;
60372;SDS011;46216;52.220;5.134;2023-10-09T09:47:12;12.70;;;6.78;;
60372;SDS011;46216;52.220;5.134;2023-10-09T09:49:41;15.70;;;6.72;;
60372;SDS011;46216;52.220;5.134;2023-10-09T09:52:07;10.77;;;6.55;;
60372;SDS011;46216;52.220;5.134;2023-10-09T09:54:37;18.15;;;6.93;;
60372;SDS011;46216;52.220;5.134;2023-10-09T09:57:03;12.02;;;6.53;;
60372;SDS011;46216;52.220;5.134;2023-10-09T09:59:38;10.50;;;6.57;;
60372;SDS011;46216;52.220;5.134;2023-10-09T10:02:37;11.52;;;6.10;;
60372;SDS011;46216;52.220;5.134;2023-10-09T10:05:08;10.77;;;6.00;;
60372;SDS011;46216;52.220;5.134;2023-10-09T10:07:37;9.45;;;5.95;;
60372;SDS011;46216;52.220;5.134;2023-10-09T10:13:13;18.23;;;6.57;;
60372;SDS011;46216;52.220;5.134;2023-10-09T10:18:22;9.63;;;5.85;;
60372;SDS011;46216;52.220;5.134;2023-10-09T10:23:40;12.13;;;6.38;;
60372;SDS011;46216;52.220;5.134;2023-10-09T10:26:18;9.88;;;5.55;;
60372;SDS011;46216;52.220;5.134;2023-10-09T10:31:58;9.90;;;5.90;;
60372;SDS011;46216;52.220;5.134;2023-10-09T10:34:51;11.20;;;5.95;;
60372;SDS011;46216;52.220;5.134;2023-10-09T10:37:37;12.75;;;6.25;;
60372;SDS011;46216;52.220;5.134;2023-10-09T10:40:25;9.48;;;5.40;;
60372;SDS011;46216;52.220;5.134;2023-10-09T10:43:04;8.68;;;5.72;;
60372;SDS011;46216;52.220;5.134;2023-10-09T10:45:39;10.63;;;5.82;;
60372;SDS011;46216;52.220;5.134;2023-10-09T10:48:10;11.55;;;6.00;;
60372;SDS011;46216;52.220;5.134;2023-10-09T10:51:03;9.85;;;6.00;;
60372;SDS011;46216;52.220;5.134;2023-10-09T10:53:30;13.32;;;5.97;;
60372;SDS011;46216;52.220;5.134;2023-10-09T10:56:12;11.65;;;5.82;;
60372;SDS011;46216;52.220;5.134;2023-10-09T10:58:41;11.77;;;6.10;;
60372;SDS011;46216;52.220;5.134;2023-10-09T11:01:20;10.88;;;5.65;;
60372;SDS011;46216;52.220;5.134;2023-10-09T11:03:49;12.40;;;5.75;;
60372;SDS011;46216;52.220;5.134;2023-10-09T11:06:27;12.52;;;5.90;;
60372;SDS011;46216;52.220;5.134;2023-10-09T11:09:04;10.40;;;6.15;;
60372;SDS011;46216;52.220;5.134;2023-10-09T11:11:36;9.30;;;5.60;;
60372;SDS011;46216;52.220;5.134;2023-10-09T11:14:10;11.65;;;5.60;;
60372;SDS011;46216;52.220;5.134;2023-10-09T11:16:52;12.93;;;5.75;;
60372;SDS011;46216;52.220;5.134;2023-10-09T11:19:22;10.02;;;5.88;;
60372;SDS011;46216;52.220;5.134;2023-10-09T11:21:59;12.48;;;5.82;;
60372;SDS011;46216;52.220;5.134;2023-10-09T11:24:32;14.07;;;5.93;;
60372;SDS011;46216;52.220;5.134;2023-10-09T11:27:02;12.00;;;5.70;;
60372;SDS011;46216;52.220;5.134;2023-10-09T11:29:33;8.88;;;5.25;;
60372;SDS011;46216;52.220;5.134;2023-10-09T11:32:08;12.45;;;5.75;;
60372;SDS011;46216;52.220;5.134;2023-10-09T11:34:43;16.20;;;5.78;;
60372;SDS011;46216;52.220;5.134;2023-10-09T11:37:19;9.80;;;5.70;;
60372;SDS011;46216;52.220;5.134;2023-10-09T11:39:58;11.32;;;5.35;;
60372;SDS011;46216;52.220;5.134;2023-10-09T11:42:28;10.95;;;5.68;;
60372;SDS011;46216;52.220;5.134;2023-10-09T11:45:00;9.57;;;5.88;;
60372;SDS011;46216;52.220;5.134;2023-10-09T11:47:35;11.95;;;5.75;;
60372;SDS011;46216;52.220;5.134;2023-10-09T11:50:01;9.75;;;5.55;;
60372;SDS011;46216;52.220;5.134;2023-10-09T11:52:27;11.63;;;6.53;;
60372;SDS011;46216;52.220;5.134;2023-10-09T11:55:03;9.70;;;5.65;;
60372;SDS011;46216;52.220;5.134;2023-10-09T11:57:39;12.43;;;5.97;;
60372;SDS011;46216;52.220;5.134;2023-10-09T12:00:05;10.20;;;5.47;;
60372;SDS011;46216;52.220;5.134;2023-10-09T12:02:50;9.40;;;5.70;;
60372;SDS011;46216;52.220;5.134;2023-10-09T12:05:15;12.27;;;5.43;;
60372;SDS011;46216;52.220;5.134;2023-10-09T12:07:47;11.48;;;5.60;;
60372;SDS011;46216;52.220;5.134;2023-10-09T12:10:19;11.27;;;5.43;;
60372;SDS011;46216;52.220;5.134;2023-10-09T12:12:49;8.55;;;5.30;;
60372;SDS011;46216;52.220;5.134;2023-10-09T12:15:15;10.55;;;5.53;;
60372;SDS011;46216;52.220;5.134;2023-10-09T12:17:43;9.93;;;5.72;;
60372;SDS011;46216;52.220;5.134;2023-10-09T12:20:09;11.60;;;5.40;;
60372;SDS011;46216;52.220;5.134;2023-10-09T12:22:39;12.15;;;5.88;;
60372;SDS011;46216;52.220;5.134;2023-10-09T12:25:06;12.70;;;6.13;;
60372;SDS011;46216;52.220;5.134;2023-10-09T12:27:34;10.55;;;5.70;;
60372;SDS011;46216;52.220;5.134;2023-10-09T12:30:00;12.07;;;5.85;;
60372;SDS011;46216;52.220;5.134;2023-10-09T12:32:28;13.30;;;6.00;;
60372;SDS011;46216;52.220;5.134;2023-10-09T12:34:53;10.02;;;5.80;;
60372;SDS011;46216;52.220;5.134;2023-10-09T12:37:21;12.27;;;6.03;;
60372;SDS011;46216;52.220;5.134;2023-10-09T12:39:46;10.52;;;5.95;;
60372;SDS011;46216;52.220;5.134;2023-10-09T12:42:12;10.98;;;5.47;;
60372;SDS011;46216;52.220;5.134;2023-10-09T12:44:38;12.15;;;5.68;;
60372;SDS011;46216;52.220;5.134;2023-10-09T12:47:07;9.05;;;5.18;;
60372;SDS011;46216;52.220;5.134;2023-10-09T12:49:36;9.85;;;5.65;;
60372;SDS011;46216;52.220;5.134;2023-10-09T12:52:06;12.57;;;5.53;;
60372;SDS011;46216;52.220;5.134;2023-10-09T12:54:40;9.43;;;5.75;;
60372;SDS011;46216;52.220;5.134;2023-10-09T12:57:06;10.43;;;5.80;;
60372;SDS011;46216;52.220;5.134;2023-10-09T12:59:38;11.48;;;5.78;;
60372;SDS011;46216;52.220;5.134;2023-10-09T13:02:04;9.80;;;5.63;;
60372;SDS011;46216;52.220;5.134;2023-10-09T13:04:31;10.95;;;5.80;;
60372;SDS011;46216;52.220;5.134;2023-10-09T13:06:57;10.52;;;5.57;;
60372;SDS011;46216;52.220;5.134;2023-10-09T13:09:29;10.77;;;5.78;;
60372;SDS011;46216;52.220;5.134;2023-10-09T13:12:01;11.27;;;5.97;;
60372;SDS011;46216;52.220;5.134;2023-10-09T13:14:27;10.48;;;5.70;;
60372;SDS011;46216;52.220;5.134;2023-10-09T13:16:53;12.60;;;5.80;;
60372;SDS011;46216;52.220;5.134;2023-10-09T13:19:19;11.00;;;5.53;;
60372;SDS011;46216;52.220;5.134;2023-10-09T13:21:49;15.27;;;6.60;;
60372;SDS011;46216;52.220;5.134;2023-10-09T13:24:15;11.75;;;5.40;;
60372;SDS011;46216;52.220;5.134;2023-10-09T13:26:49;10.90;;;5.80;;
60372;SDS011;46216;52.220;5.134;2023-10-09T13:29:23;11.60;;;5.55;;
60372;SDS011;46216;52.220;5.134;2023-10-09T13:31:48;14.10;;;5.85;;
60372;SDS011;46216;52.220;5.134;2023-10-09T13:34:17;14.50;;;5.60;;
60372;SDS011;46216;52.220;5.134;2023-10-09T13:36:43;13.15;;;5.82;;
60372;SDS011;46216;52.220;5.134;2023-10-09T13:39:18;11.38;;;6.28;;
60372;SDS011;46216;52.220;5.134;2023-10-09T13:41:56;13.93;;;5.80;;
60372;SDS011;46216;52.220;5.134;2023-10-09T13:44:33;11.68;;;6.28;;
60372;SDS011;46216;52.220;5.134;2023-10-09T13:47:00;11.80;;;6.03;;
60372;SDS011;46216;52.220;5.134;2023-10-09T13:49:28;16.10;;;6.88;;
60372;SDS011;46216;52.220;5.134;2023-10-09T13:51:55;10.55;;;6.60;;
60372;SDS011;46216;52.220;5.134;2023-10-09T13:54:22;12.73;;;6.95;;
60372;SDS011;46216;52.220;5.134;2023-10-09T13:57:05;14.70;;;6.70;;
60372;SDS011;46216;52.220;5.134;2023-10-09T13:59:34;12.32;;;6.53;;
60372;SDS011;46216;52.220;5.134;2023-10-09T14:02:00;14.68;;;7.22;;
60372;SDS011;46216;52.220;5.134;2023-10-09T14:04:27;13.00;;;6.60;;
60372;SDS011;46216;52.220;5.134;2023-10-09T14:06:53;11.25;;;7.00;;
60372;SDS011;46216;52.220;5.134;2023-10-09T14:09:22;14.38;;;7.18;;
60372;SDS011;46216;52.220;5.134;2023-10-09T14:12:03;14.82;;;6.70;;
60372;SDS011;46216;52.220;5.134;2023-10-09T14:14:36;16.20;;;7.38;;
60372;SDS011;46216;52.220;5.134;2023-10-09T14:17:09;15.27;;;6.43;;
60372;SDS011;46216;52.220;5.134;2023-10-09T14:19:38;13.13;;;6.35;;
60372;SDS011;46216;52.220;5.134;2023-10-09T14:22:15;14.38;;;7.25;;
60372;SDS011;46216;52.220;5.134;2023-10-09T14:24:45;15.73;;;6.50;;
60372;SDS011;46216;52.220;5.134;2023-10-09T14:27:14;15.32;;;6.65;;
60372;SDS011;46216;52.220;5.134;2023-10-09T14:29:44;13.52;;;7.38;;
60372;SDS011;46216;52.220;5.134;2023-10-09T14:32:13;11.70;;;6.45;;
60372;SDS011;46216;52.220;5.134;2023-10-09T14:34:39;14.82;;;7.05;;
60372;SDS011;46216;52.220;5.134;2023-10-09T14:37:12;12.95;;;6.93;;
60372;SDS011;46216;52.220;5.134;2023-10-09T14:39:40;15.15;;;6.78;;
60372;SDS011;46216;52.220;5.134;2023-10-09T14:42:06;12.68;;;7.00;;
60372;SDS011;46216;52.220;5.134;2023-10-09T14:44:35;13.68;;;6.97;;
60372;SDS011;46216;52.220;5.134;2023-10-09T14:47:04;12.98;;;7.20;;
60372;SDS011;46216;52.220;5.134;2023-10-09T14:49:30;13.80;;;7.15;;
60372;SDS011;46216;52.220;5.134;2023-10-09T14:52:08;10.85;;;6.53;;
60372;SDS011;46216;52.220;5.134;2023-10-09T14:54:35;12.93;;;6.75;;
60372;SDS011;46216;52.220;5.134;2023-10-09T14:57:00;11.73;;;6.72;;
60372;SDS011;46216;52.220;5.134;2023-10-09T14:59:26;11.43;;;6.18;;
60372;SDS011;46216;52.220;5.134;2023-10-09T15:01:51;13.88;;;7.07;;
60372;SDS011;46216;52.220;5.134;2023-10-09T15:04:19;14.88;;;6.93;;
60372;SDS011;46216;52.220;5.134;2023-10-09T15:06:45;15.18;;;6.78;;
60372;SDS011;46216;52.220;5.134;2023-10-09T15:09:14;13.85;;;6.78;;
60372;SDS011;46216;52.220;5.134;2023-10-09T15:11:53;10.77;;;6.40;;
60372;SDS011;46216;52.220;5.134;2023-10-09T15:14:19;13.70;;;6.80;;
60372;SDS011;46216;52.220;5.134;2023-10-09T15:16:45;14.80;;;6.85;;
60372;SDS011;46216;52.220;5.134;2023-10-09T15:19:11;15.30;;;6.57;;
60372;SDS011;46216;52.220;5.134;2023-10-09T15:21:37;11.50;;;6.93;;
60372;SDS011;46216;52.220;5.134;2023-10-09T15:24:09;12.63;;;6.50;;
60372;SDS011;46216;52.220;5.134;2023-10-09T15:26:41;14.10;;;7.03;;
60372;SDS011;46216;52.220;5.134;2023-10-09T15:29:07;13.57;;;6.50;;
60372;SDS011;46216;52.220;5.134;2023-10-09T15:31:35;14.73;;;6.55;;
60372;SDS011;46216;52.220;5.134;2023-10-09T15:34:01;13.35;;;6.90;;